Time;durP1;ratioP1;P1;durP2;ratioP2;P2;SDS_P1;SDS_P2;PMS_P1;PMS_P2;Temp;Humidity;BMP_temperature;BMP_pressure;BME280_temperature;BME280_humidity;BME280_pressure;Samples;Min_cycle;Max_cycle;Signal;HPM_P1;HPM_P2
2020/12/02 00:01:33;;;;;;;38.90;7.07;;;23.50;65.30;;;;;;5073189;28;20167;-79
2020/12/02 00:04:06;;;;;;;33.00;7.13;;;23.50;65.60;;;;;;5073298;28;20256;-81
2020/12/02 00:06:34;;;;;;;26.83;6.50;;;23.50;65.40;;;;;;5064435;28;20665;-78
2020/12/02 00:09:15;;;;;;;45.10;7.30;;;23.50;65.30;;;;;;5071822;28;20559;-81
2020/12/02 00:11:43;;;;;;;26.87;6.30;;;23.50;64.60;;;;;;5071266;28;20183;-77
2020/12/02 00:14:19;;;;;;;34.83;7.77;;;23.30;66.10;;;;;;5067866;28;20178;-78
2020/12/02 00:16:47;;;;;;;37.33;8.00;;;23.30;66.20;;;;;;5071767;28;20178;-78
2020/12/02 00:19:14;;;;;;;36.60;8.07;;;23.70;65.40;;;;;;5072959;28;20637;-77
2020/12/02 00:21:57;;;;;;;43.00;7.83;;;24.00;64.70;;;;;;5072193;28;20179;-78
2020/12/02 00:24:24;;;;;;;36.87;7.00;;;24.10;63.60;;;;;;5070548;28;20215;-78
2020/12/02 00:26:54;;;;;;;30.10;7.33;;;23.90;62.80;;;;;;5071205;28;20313;-78
2020/12/02 00:29:22;;;;;;;41.67;8.37;;;24.20;63.40;;;;;;5069716;28;20663;-79
2020/12/02 00:31:49;;;;;;;36.57;7.27;;;24.30;63.20;;;;;;5071718;28;20206;-78
2020/12/02 00:34:16;;;;;;;38.57;7.00;;;24.70;63.50;;;;;;5093590;28;20162;-82
2020/12/02 00:36:44;;;;;;;34.57;6.13;;;24.60;62.50;;;;;;5092136;28;20569;-83
2020/12/02 00:39:11;;;;;;;33.33;7.20;;;24.50;62.40;;;;;;5094481;28;20171;-79
2020/12/02 00:41:38;;;;;;;32.40;7.13;;;24.50;62.30;;;;;;5093874;28;20592;-81
2020/12/02 00:44:06;;;;;;;35.13;6.93;;;24.60;62.70;;;;;;5093448;28;20262;-83
2020/12/02 00:46:33;;;;;;;33.63;7.53;;;24.80;61.40;;;;;;5093019;28;20214;-78
2020/12/02 00:49:01;;;;;;;33.93;7.20;;;24.80;60.50;;;;;;5075051;28;20166;-78
2020/12/02 00:51:29;;;;;;;32.27;6.77;;;25.20;60.90;;;;;;5082807;28;20377;-78
2020/12/02 00:53:56;;;;;;;38.77;7.73;;;25.10;60.40;;;;;;5077049;28;21554;-79
2020/12/02 00:56:24;;;;;;;41.10;6.90;;;24.70;60.60;;;;;;5072758;28;20178;-81
2020/12/02 00:59:10;;;;;;;43.57;7.77;;;24.50;63.10;;;;;;5078609;28;20254;-82
2020/12/02 01:01:58;;;;;;;29.90;6.47;;;24.10;64.00;;;;;;5073974;28;20182;-81
2020/12/02 01:04:26;;;;;;;45.40;8.10;;;24.10;65.10;;;;;;5073557;28;20242;-81
2020/12/02 01:06:56;;;;;;;40.83;6.47;;;24.30;64.50;;;;;;5074623;28;20226;-83
2020/12/02 01:09:29;;;;;;;34.37;6.53;;;24.30;64.30;;;;;;5073861;28;20175;-83
2020/12/02 01:12:01;;;;;;;34.40;6.60;;;24.40;63.70;;;;;;5075890;28;20190;-82
2020/12/02 01:14:30;;;;;;;34.77;7.40;;;24.60;62.50;;;;;;5075918;28;20171;-81
2020/12/02 01:17:00;;;;;;;34.17;6.20;;;25.30;61.10;;;;;;5072696;28;20215;-80
2020/12/02 01:19:31;;;;;;;31.83;6.57;;;25.60;59.20;;;;;;5077485;28;20190;-82
2020/12/02 01:22:12;;;;;;;35.93;6.60;;;25.40;59.20;;;;;;5076865;28;20175;-84
2020/12/02 01:24:58;;;;;;;31.57;6.97;;;25.20;59.80;;;;;;5078505;28;20235;-79
2020/12/02 01:27:32;;;;;;;41.73;6.33;;;25.00;60.30;;;;;;5078034;28;20184;-81
2020/12/02 01:30:00;;;;;;;34.47;6.90;;;24.60;60.70;;;;;;5089861;28;20185;-78
2020/12/02 01:32:30;;;;;;;36.60;7.47;;;24.70;62.10;;;;;;5085191;28;20541;-79
2020/12/02 01:34:58;;;;;;;30.33;6.27;;;25.10;61.80;;;;;;5077605;28;20664;-81
2020/12/02 01:37:30;;;;;;;34.43;6.77;;;25.40;61.10;;;;;;5077085;28;20637;-81
2020/12/02 01:40:12;;;;;;;36.43;7.17;;;25.20;60.00;;;;;;5077022;28;20168;-79
2020/12/02 01:42:50;;;;;;;31.30;6.43;;;25.00;60.80;;;;;;5076692;28;20258;-78
2020/12/02 01:45:30;;;;;;;36.57;7.60;;;24.90;61.20;;;;;;5076151;28;20191;-80
2020/12/02 01:48:06;;;;;;;31.20;6.40;;;24.70;61.40;;;;;;5076923;28;20183;-78
2020/12/02 01:50:54;;;;;;;34.97;6.43;;;24.40;61.50;;;;;;5087029;28;20167;-79
2020/12/02 01:53:25;;;;;;;42.37;6.47;;;24.20;62.40;;;;;;5076232;28;20247;-77
2020/12/02 01:55:59;;;;;;;40.53;6.20;;;24.00;67.00;;;;;;5058328;28;20580;-81
2020/12/02 01:58:45;;;;;;;37.80;6.20;;;23.80;70.30;;;;;;5095280;28;20181;-79
2020/12/02 02:01:40;;;;;;;31.00;6.67;;;23.90;67.90;;;;;;5081969;28;20175;-81
2020/12/02 02:04:12;;;;;;;30.47;5.33;;;24.00;66.20;;;;;;5075414;28;20213;-80
2020/12/02 02:07:03;;;;;;;32.63;6.07;;;24.10;65.00;;;;;;5075515;28;20249;-81
2020/12/02 02:09:31;;;;;;;30.50;5.93;;;24.40;62.10;;;;;;5076039;28;20706;-81
2020/12/02 02:12:21;;;;;;;36.83;6.00;;;24.60;62.10;;;;;;5077734;28;20179;-77
2020/12/02 02:15:18;;;;;;;30.07;7.20;;;24.80;61.60;;;;;;5066785;28;20164;-76
2020/12/02 02:17:45;;;;;;;29.60;6.70;;;25.20;60.20;;;;;;5074144;28;20167;-81
2020/12/02 02:20:14;;;;;;;32.57;6.83;;;24.90;61.80;;;;;;5073718;28;20570;-79
2020/12/02 02:22:41;;;;;;;39.43;7.80;;;24.60;62.20;;;;;;5075957;28;20209;-80
2020/12/02 02:25:13;;;;;;;39.90;7.67;;;24.40;63.60;;;;;;5073422;28;20222;-83
2020/12/02 02:27:44;;;;;;;39.07;6.77;;;24.20;64.30;;;;;;5074437;28;20277;-77
2020/12/02 02:30:12;;;;;;;41.90;7.97;;;23.60;66.20;;;;;;5074042;28;20183;-81
2020/12/02 02:32:39;;;;;;;45.77;7.07;;;23.20;67.10;;;;;;5073970;28;20183;-83
2020/12/02 02:35:07;;;;;;;42.10;8.07;;;23.20;67.70;;;;;;5072187;28;20214;-79
2020/12/02 02:37:34;;;;;;;40.80;7.13;;;23.20;67.20;;;;;;5075392;28;20221;-82
2020/12/02 02:40:04;;;;;;;35.93;7.73;;;23.20;66.60;;;;;;5075212;28;20183;-81
2020/12/02 02:42:40;;;;;;;38.03;7.20;;;23.20;67.10;;;;;;5074365;28;20180;-81
2020/12/02 02:45:17;;;;;;;38.73;6.13;;;23.20;67.20;;;;;;5074506;28;20202;-79
2020/12/02 02:47:45;;;;;;;44.77;6.57;;;23.20;66.60;;;;;;5073739;28;20640;-78
2020/12/02 02:50:15;;;;;;;31.20;6.50;;;23.40;66.80;;;;;;5073929;28;20510;-82
2020/12/02 02:52:44;;;;;;;34.60;6.50;;;23.50;66.20;;;;;;5074416;28;20180;-82
2020/12/02 02:55:19;;;;;;;29.57;5.83;;;23.50;65.20;;;;;;5071674;28;20536;-83
2020/12/02 02:57:47;;;;;;;30.10;6.43;;;23.20;65.50;;;;;;5053992;28;20179;-79
2020/12/02 03:00:28;;;;;;;36.73;6.10;;;23.10;66.90;;;;;;5057752;28;20190;-81
2020/12/02 03:02:57;;;;;;;44.17;7.43;;;22.90;67.00;;;;;;5072786;28;20316;-82
2020/12/02 03:05:25;;;;;;;41.47;7.07;;;23.00;67.20;;;;;;5073601;28;20206;-80
2020/12/02 03:07:58;;;;;;;39.73;7.07;;;23.20;67.20;;;;;;5072250;28;20175;-80
2020/12/02 03:10:29;;;;;;;38.83;5.83;;;23.20;66.90;;;;;;5073939;28;20179;-81
2020/12/02 03:13:07;;;;;;;31.70;5.83;;;23.30;66.40;;;;;;5074127;28;20255;-80
2020/12/02 03:15:35;;;;;;;37.40;6.37;;;23.00;66.30;;;;;;5073913;28;20250;-82
2020/12/02 03:18:02;;;;;;;35.13;6.23;;;23.00;67.20;;;;;;5073790;28;20236;-82
2020/12/02 03:20:41;;;;;;;37.57;6.50;;;23.00;67.20;;;;;;5073673;28;20194;-81
2020/12/02 03:23:11;;;;;;;32.90;6.53;;;23.20;67.40;;;;;;5069428;28;20190;-81
2020/12/02 03:25:40;;;;;;;31.00;6.67;;;23.00;66.90;;;;;;5063642;28;20539;-83
2020/12/02 03:28:08;;;;;;;27.33;6.43;;;22.90;66.40;;;;;;5067031;28;20542;-81
2020/12/02 03:30:36;;;;;;;36.27;7.17;;;22.80;66.60;;;;;;5058012;28;20229;-80
2020/12/02 03:33:05;;;;;;;35.30;6.47;;;22.70;67.10;;;;;;5073906;28;20190;-82
2020/12/02 03:35:33;;;;;;;39.77;7.20;;;22.80;67.20;;;;;;5074431;28;20217;-81
2020/12/02 03:38:00;;;;;;;36.17;6.50;;;23.00;67.20;;;;;;5073589;28;20637;-83
2020/12/02 03:40:27;;;;;;;28.57;6.13;;;23.00;66.40;;;;;;5073944;28;20197;-80
2020/12/02 03:42:56;;;;;;;36.03;7.23;;;23.00;67.00;;;;;;5072731;28;20174;-83
2020/12/02 03:45:23;;;;;;;31.17;7.67;;;23.10;66.50;;;;;;5073920;28;20294;-81
2020/12/02 03:47:51;;;;;;;35.93;6.53;;;23.10;67.10;;;;;;5073723;28;20179;-83
2020/12/02 03:50:18;;;;;;;28.73;5.60;;;22.90;66.40;;;;;;5073966;28;20183;-84
2020/12/02 03:52:46;;;;;;;36.13;6.20;;;22.70;66.70;;;;;;5073637;28;20270;-82
2020/12/02 03:55:16;;;;;;;33.67;6.87;;;22.60;67.50;;;;;;5070897;28;20592;-82
2020/12/02 03:57:43;;;;;;;38.77;7.60;;;22.60;67.80;;;;;;5074040;28;20167;-83
2020/12/02 04:00:12;;;;;;;42.93;7.47;;;22.70;67.30;;;;;;5073580;28;20171;-83
2020/12/02 04:02:39;;;;;;;33.47;7.87;;;22.70;67.00;;;;;;5072697;28;20270;-84
2020/12/02 04:05:08;;;;;;;34.57;5.90;;;23.00;67.60;;;;;;5072519;28;20195;-83
2020/12/02 04:07:35;;;;;;;34.57;5.90;;;23.00;66.00;;;;;;5073097;28;20642;-83
2020/12/02 04:10:04;;;;;;;28.87;5.93;;;23.00;65.70;;;;;;5073148;28;20676;-83
2020/12/02 04:12:31;;;;;;;34.63;6.07;;;22.80;65.80;;;;;;5076679;28;20237;-81
2020/12/02 04:14:59;;;;;;;25.40;6.00;;;22.90;66.00;;;;;;5077329;28;20180;-84
2020/12/02 04:17:26;;;;;;;32.10;5.73;;;23.00;65.00;;;;;;5078055;28;20215;-83
2020/12/02 04:19:53;;;;;;;37.50;5.87;;;22.90;64.10;;;;;;5076165;28;20608;-83
2020/12/02 04:22:21;;;;;;;38.57;6.40;;;22.90;64.10;;;;;;5075903;28;20283;-83
2020/12/02 04:24:48;;;;;;;38.20;8.63;;;23.00;64.80;;;;;;5070756;28;20318;-84
2020/12/02 04:27:16;;;;;;;37.37;9.13;;;23.10;64.00;;;;;;5073164;28;20576;-82
2020/12/02 04:29:44;;;;;;;26.97;6.10;;;23.10;63.00;;;;;;5072925;28;20175;-81
2020/12/02 04:32:12;;;;;;;38.23;6.83;;;23.10;63.20;;;;;;5072741;28;20650;-81
2020/12/02 04:34:39;;;;;;;34.73;5.90;;;23.00;63.20;;;;;;5072674;28;20229;-80
2020/12/02 04:37:06;;;;;;;31.53;6.33;;;23.10;64.00;;;;;;5072860;28;20195;-82
2020/12/02 04:39:34;;;;;;;34.10;6.53;;;22.90;65.00;;;;;;5072397;28;20179;-82
2020/12/02 04:42:01;;;;;;;27.93;6.77;;;22.90;65.40;;;;;;5071967;28;20171;-82
2020/12/02 04:44:29;;;;;;;31.40;6.30;;;22.80;65.00;;;;;;5072030;28;20182;-81
2020/12/02 04:46:57;;;;;;;34.70;7.67;;;22.70;66.60;;;;;;5073981;28;20214;-82
2020/12/02 04:49:32;;;;;;;28.83;6.70;;;22.70;68.40;;;;;;5073224;28;20645;-81
2020/12/02 04:52:04;;;;;;;36.60;6.57;;;22.70;68.60;;;;;;5073034;28;20167;-83
2020/12/02 04:54:31;;;;;;;36.87;6.13;;;22.80;68.30;;;;;;5076091;28;20171;-82
2020/12/02 04:56:59;;;;;;;36.43;6.07;;;22.90;68.40;;;;;;5064746;28;20183;-81
2020/12/02 04:59:41;;;;;;;28.93;5.63;;;22.80;67.30;;;;;;5077029;28;20183;-81
2020/12/02 05:02:22;;;;;;;26.70;5.37;;;22.90;67.60;;;;;;5075275;28;20266;-83
2020/12/02 05:05:00;;;;;;;30.27;5.07;;;22.80;67.30;;;;;;5075610;28;20605;-81
2020/12/02 05:07:29;;;;;;;25.87;5.33;;;22.50;68.00;;;;;;5076941;28;20190;-83
2020/12/02 05:09:58;;;;;;;33.23;5.60;;;22.30;68.40;;;;;;5075636;28;20175;-83
2020/12/02 05:12:31;;;;;;;42.77;5.83;;;22.40;68.60;;;;;;5060582;28;20192;-82
2020/12/02 05:15:19;;;;;;;39.87;6.27;;;22.30;68.00;;;;;;5076673;28;20175;-82
2020/12/02 05:18:16;;;;;;;30.33;5.33;;;22.30;67.70;;;;;;5076100;28;20232;-81
2020/12/02 05:20:44;;;;;;;29.47;6.23;;;22.40;68.30;;;;;;5076524;28;20176;-81
2020/12/02 05:23:21;;;;;;;41.03;6.30;;;22.30;68.30;;;;;;5076050;28;20310;-82
2020/12/02 05:25:49;;;;;;;31.80;5.43;;;22.40;68.00;;;;;;5075987;28;20283;-81
2020/12/02 05:28:32;;;;;;;30.17;6.97;;;22.50;68.60;;;;;;5094332;28;20682;-82
2020/12/02 05:31:23;;;;;;;34.80;5.60;;;22.50;68.50;;;;;;5096812;28;20273;-81
2020/12/02 05:33:51;;;;;;;31.27;5.97;;;22.50;68.70;;;;;;5095209;28;20593;-81
2020/12/02 05:36:32;;;;;;;39.30;6.83;;;22.30;69.30;;;;;;5096916;28;20179;-83
2020/12/02 05:39:32;;;;;;;31.93;5.90;;;22.30;69.00;;;;;;5096724;28;20618;-79
2020/12/02 05:42:01;;;;;;;30.90;6.33;;;22.20;68.90;;;;;;5095187;28;20175;-80
2020/12/02 05:44:39;;;;;;;33.23;5.23;;;22.00;68.80;;;;;;5096729;28;20589;-80
2020/12/02 05:47:18;;;;;;;30.60;6.13;;;22.00;69.20;;;;;;5096357;28;20214;-81
2020/12/02 05:49:58;;;;;;;29.73;6.27;;;22.00;69.70;;;;;;5096182;28;20636;-81
2020/12/02 05:52:29;;;;;;;28.43;5.83;;;22.00;70.20;;;;;;5096740;28;20198;-80
2020/12/02 05:55:06;;;;;;;34.50;6.80;;;21.90;70.00;;;;;;5092658;28;20508;-82
2020/12/02 05:57:35;;;;;;;40.23;8.07;;;21.90;70.70;;;;;;5076566;28;20174;-83
2020/12/02 06:00:03;;;;;;;32.17;6.20;;;21.90;70.90;;;;;;5075166;28;20524;-82
2020/12/02 06:02:31;;;;;;;39.07;7.07;;;21.90;70.30;;;;;;5077959;28;20173;-82
2020/12/02 06:04:59;;;;;;;32.93;6.87;;;21.90;69.70;;;;;;5074170;28;20184;-81
2020/12/02 06:07:35;;;;;;;31.73;6.67;;;21.80;69.70;;;;;;5068480;28;20182;-82
2020/12/02 06:10:02;;;;;;;29.77;5.90;;;21.80;69.70;;;;;;5059330;28;20174;-83
2020/12/02 06:12:42;;;;;;;33.67;6.33;;;21.70;70.20;;;;;;5068144;28;20258;-82
2020/12/02 06:15:21;;;;;;;34.57;6.80;;;21.70;69.80;;;;;;5063900;28;20190;-81
2020/12/02 06:17:49;;;;;;;41.00;7.00;;;21.70;70.40;;;;;;5072902;28;20179;-84
2020/12/02 06:20:16;;;;;;;30.43;5.10;;;21.60;70.50;;;;;;5078329;28;20176;-83
2020/12/02 06:22:51;;;;;;;36.13;6.50;;;21.70;70.70;;;;;;5083053;28;20212;-82
2020/12/02 06:25:48;;;;;;;30.73;5.07;;;21.70;70.10;;;;;;5075647;28;20206;-84
2020/12/02 06:28:31;;;;;;;31.87;5.47;;;21.80;69.90;;;;;;5063216;28;20182;-81
2020/12/02 06:31:03;;;;;;;33.77;5.40;;;21.60;69.80;;;;;;5091598;28;20243;-83
2020/12/02 06:33:38;;;;;;;33.90;5.70;;;21.50;70.70;;;;;;5095266;28;20183;-82
2020/12/02 06:36:21;;;;;;;31.90;4.80;;;21.50;70.80;;;;;;5095582;28;20576;-84
2020/12/02 06:38:54;;;;;;;32.20;5.73;;;21.40;70.80;;;;;;5080411;28;20182;-82
2020/12/02 06:41:27;;;;;;;34.23;4.63;;;21.40;71.20;;;;;;5063886;28;20585;-82
2020/12/02 06:44:14;;;;;;;32.73;5.33;;;21.30;70.80;;;;;;5080794;28;20225;-82
2020/12/02 06:47:04;;;;;;;31.07;6.03;;;21.40;71.10;;;;;;5062048;28;20203;-81
2020/12/02 06:49:35;;;;;;;28.63;5.40;;;21.50;71.00;;;;;;5096669;28;20258;-81
2020/12/02 06:52:10;;;;;;;32.83;5.00;;;21.60;71.10;;;;;;5080679;28;20187;-81
2020/12/02 06:54:40;;;;;;;33.37;5.33;;;21.60;71.70;;;;;;5074097;28;20178;-82
2020/12/02 06:57:20;;;;;;;34.73;5.40;;;21.50;71.60;;;;;;5073431;28;20236;-81
2020/12/02 06:59:59;;;;;;;29.93;5.80;;;21.40;71.70;;;;;;5074060;28;20229;-79
2020/12/02 07:02:36;;;;;;;27.20;5.50;;;21.40;72.60;;;;;;5079945;28;20628;-80
2020/12/02 07:05:11;;;;;;;21.63;5.20;;;21.30;72.70;;;;;;5069884;28;20194;-80
2020/12/02 07:07:38;;;;;;;33.90;5.10;;;21.20;72.60;;;;;;5087476;28;20209;-80
2020/12/02 07:10:13;;;;;;;26.20;5.83;;;21.10;72.40;;;;;;5091883;28;20163;-81
2020/12/02 07:12:41;;;;;;;28.87;7.10;;;21.10;72.80;;;;;;5065929;28;20177;-81
2020/12/02 07:15:13;;;;;;;28.33;5.90;;;21.10;73.10;;;;;;5073007;28;20603;-80
2020/12/02 07:17:44;;;;;;;36.23;5.70;;;21.00;72.80;;;;;;5063115;28;20221;-81
2020/12/02 07:20:15;;;;;;;31.53;5.17;;;21.00;73.00;;;;;;5076761;28;20187;-80
2020/12/02 07:22:50;;;;;;;36.60;5.60;;;20.90;73.20;;;;;;5085064;28;20203;-82
2020/12/02 07:25:18;;;;;;;35.13;5.60;;;20.90;73.30;;;;;;5075488;28;20203;-82
2020/12/02 07:27:46;;;;;;;27.60;4.60;;;20.90;74.10;;;;;;5068115;28;20555;-81
2020/12/02 07:30:34;;;;;;;26.03;4.97;;;21.00;74.20;;;;;;5072232;28;20262;-80
2020/12/02 07:33:17;;;;;;;26.70;6.00;;;21.00;73.80;;;;;;5071393;28;20179;-81
2020/12/02 07:35:46;;;;;;;26.63;4.87;;;21.00;73.60;;;;;;5072651;28;20178;-81
2020/12/02 07:38:15;;;;;;;24.73;4.63;;;20.90;73.70;;;;;;5073640;28;20175;-81
2020/12/02 07:40:43;;;;;;;31.03;5.70;;;20.80;75.00;;;;;;5074894;28;20180;-80
2020/12/02 07:43:31;;;;;;;30.67;5.80;;;20.70;74.90;;;;;;5091545;28;20637;-81
2020/12/02 07:46:02;;;;;;;31.00;7.00;;;20.70;74.10;;;;;;5077511;28;20195;-81
2020/12/02 07:48:31;;;;;;;34.17;5.67;;;20.80;73.90;;;;;;5064458;28;20226;-80
2020/12/02 07:51:00;;;;;;;25.63;4.30;;;20.80;73.20;;;;;;5074125;28;20668;-82
2020/12/02 07:53:54;;;;;;;36.10;5.27;;;20.80;73.10;;;;;;5073945;28;20209;-82
2020/12/02 07:56:34;;;;;;;27.97;5.97;;;20.90;72.80;;;;;;5073905;28;20644;-81
2020/12/02 07:59:17;;;;;;;29.90;5.10;;;20.80;73.00;;;;;;5073598;28;20179;-81
2020/12/02 08:01:48;;;;;;;32.43;6.23;;;20.80;73.30;;;;;;5073013;28;20175;-80
2020/12/02 08:04:21;;;;;;;28.60;5.53;;;20.90;73.00;;;;;;5072806;28;20179;-81
2020/12/02 08:06:59;;;;;;;23.97;5.20;;;20.90;73.00;;;;;;5062714;28;20203;-82
2020/12/02 08:09:25;;;;;;;34.07;6.03;;;20.90;73.70;;;;;;5063160;28;20178;-83
2020/12/02 08:12:20;;;;;;;28.43;4.97;;;20.90;76.70;;;;;;5070981;28;20254;-82
2020/12/02 08:15:08;;;;;;;30.00;5.43;;;20.70;78.00;;;;;;5073251;28;20174;-81
2020/12/02 08:17:36;;;;;;;23.07;4.97;;;20.60;79.50;;;;;;5073176;28;20175;-80
2020/12/02 08:20:30;;;;;;;27.17;5.37;;;20.30;81.20;;;;;;5072012;28;20262;-81
2020/12/02 08:23:07;;;;;;;31.27;5.73;;;20.10;81.40;;;;;;5057445;28;20187;-81
2020/12/02 08:26:01;;;;;;;30.10;5.50;;;20.00;81.50;;;;;;5073381;28;20213;-82
2020/12/02 08:28:36;;;;;;;31.17;5.27;;;20.00;81.70;;;;;;5060244;28;20180;-80
2020/12/02 08:31:22;;;;;;;32.97;5.40;;;20.00;80.40;;;;;;5064045;28;20537;-82
2020/12/02 08:34:08;;;;;;;19.53;4.80;;;20.00;81.30;;;;;;5072739;28;20187;-80
2020/12/02 08:36:37;;;;;;;33.63;4.97;;;20.00;80.50;;;;;;5072416;28;20187;-81
2020/12/02 08:39:06;;;;;;;26.90;5.20;;;19.90;79.80;;;;;;5072792;28;20652;-80
2020/12/02 08:41:49;;;;;;;27.63;4.93;;;19.90;79.70;;;;;;5072962;28;20187;-80
2020/12/02 08:44:18;;;;;;;26.17;4.73;;;20.00;78.80;;;;;;5065861;28;20211;-79
2020/12/02 08:46:51;;;;;;;34.37;6.77;;;20.00;77.90;;;;;;5071529;28;20688;-82
2020/12/02 08:49:22;;;;;;;28.57;4.87;;;20.00;77.90;;;;;;5073591;28;20175;-82
2020/12/02 08:51:49;;;;;;;26.50;5.13;;;19.90;77.30;;;;;;5072064;28;20347;-83
2020/12/02 08:54:18;;;;;;;28.80;5.10;;;19.90;77.40;;;;;;5078612;28;20244;-84
2020/12/02 08:56:45;;;;;;;23.80;4.33;;;19.90;77.70;;;;;;5078788;28;20536;-83
2020/12/02 08:59:14;;;;;;;26.93;5.13;;;19.90;76.90;;;;;;5080203;28;20256;-81
2020/12/02 09:01:42;;;;;;;23.83;5.23;;;20.00;76.60;;;;;;5077039;28;20193;-81
2020/12/02 09:04:09;;;;;;;27.50;4.70;;;20.00;77.30;;;;;;5079291;28;20175;-85
2020/12/02 09:06:36;;;;;;;28.27;6.23;;;20.00;78.20;;;;;;5077358;28;20576;-83
2020/12/02 09:09:05;;;;;;;32.43;5.47;;;19.90;77.90;;;;;;5078831;28;20202;-84
2020/12/02 09:11:36;;;;;;;34.43;5.43;;;19.90;77.90;;;;;;5078832;28;20191;-83
2020/12/02 09:14:06;;;;;;;36.17;5.27;;;19.90;77.50;;;;;;5078219;28;20511;-81
2020/12/02 09:16:36;;;;;;;25.53;5.13;;;20.00;77.10;;;;;;5076572;28;20179;-82
2020/12/02 09:19:07;;;;;;;29.53;4.87;;;20.00;76.30;;;;;;5077523;28;20208;-82
2020/12/02 09:21:35;;;;;;;26.80;5.90;;;20.00;76.50;;;;;;5076770;28;20202;-81
2020/12/02 09:24:02;;;;;;;26.43;5.10;;;20.00;76.40;;;;;;5072058;28;20234;-84
2020/12/02 09:26:36;;;;;;;22.87;4.37;;;20.00;75.80;;;;;;5072136;28;20610;-82
2020/12/02 09:29:06;;;;;;;21.67;4.70;;;20.00;75.60;;;;;;5061020;28;20180;-81
2020/12/02 09:31:34;;;;;;;29.27;5.30;;;20.00;75.60;;;;;;5053931;28;20173;-82
2020/12/02 09:34:06;;;;;;;26.67;5.73;;;20.00;75.80;;;;;;5070092;28;20167;-81
2020/12/02 09:36:35;;;;;;;28.00;4.80;;;20.00;75.80;;;;;;5069761;28;20175;-80
2020/12/02 09:39:04;;;;;;;33.63;5.10;;;20.10;75.90;;;;;;5073313;28;20183;-82
2020/12/02 09:42:00;;;;;;;31.93;5.53;;;20.10;75.60;;;;;;5075991;28;20660;-84
2020/12/02 09:44:35;;;;;;;24.33;4.23;;;20.10;75.40;;;;;;5073944;28;20187;-82
2020/12/02 09:47:14;;;;;;;26.07;5.00;;;20.00;75.20;;;;;;5076672;28;20219;-80
2020/12/02 09:49:45;;;;;;;28.47;5.37;;;20.00;76.10;;;;;;5076400;28;20168;-82
2020/12/02 09:52:12;;;;;;;32.80;5.37;;;19.90;77.00;;;;;;5075558;28;20175;-84
2020/12/02 09:54:42;;;;;;;26.07;4.47;;;19.90;78.40;;;;;;5067711;28;20211;-82
2020/12/02 09:57:26;;;;;;;24.60;4.87;;;19.90;78.80;;;;;;5073821;28;20183;-81
2020/12/02 09:59:57;;;;;;;28.73;5.17;;;19.80;78.50;;;;;;5075705;28;20185;-83
2020/12/02 10:02:36;;;;;;;26.83;5.27;;;19.80;78.40;;;;;;5075056;28;20702;-82
2020/12/02 10:05:09;;;;;;;17.50;3.57;;;19.80;78.40;;;;;;5072447;28;20195;-82
2020/12/02 10:07:59;;;;;;;24.93;4.90;;;19.80;77.60;;;;;;5065732;28;20172;-83
2020/12/02 10:10:38;;;;;;;20.93;4.30;;;19.90;77.50;;;;;;5058163;28;20168;-83
2020/12/02 10:13:55;;;;;;;26.70;4.43;;;19.80;77.10;;;;;;5075667;28;20277;-82
2020/12/02 10:16:54;;;;;;;24.70;4.83;;;19.90;77.40;;;;;;5067317;28;20179;-83
2020/12/02 10:19:27;;;;;;;28.53;5.17;;;19.80;76.50;;;;;;5069417;28;20195;-82
2020/12/02 10:22:32;;;;;;;23.10;4.80;;;19.90;76.40;;;;;;5073028;28;20554;-83
2020/12/02 10:25:44;;;;;;;26.00;4.40;;;19.90;76.40;;;;;;5065060;28;20245;-82
2020/12/02 10:28:41;;;;;;;36.93;5.63;;;19.90;76.90;;;;;;5063453;28;20194;-83
2020/12/02 10:31:40;;;;;;;32.10;4.90;;;19.80;79.50;;;;;;5074661;28;20198;-84
2020/12/02 10:34:45;;;;;;;24.67;5.07;;;19.60;83.50;;;;;;5074046;28;20187;-82
2020/12/02 10:37:28;;;;;;;36.63;6.03;;;19.30;85.80;;;;;;5090414;28;20170;-81
2020/12/02 10:39:56;;;;;;;27.37;5.50;;;19.10;87.20;;;;;;5079516;28;20190;-84
2020/12/02 10:42:36;;;;;;;29.23;5.40;;;19.00;87.00;;;;;;5075262;28;20526;-83
2020/12/02 10:45:13;;;;;;;31.87;5.80;;;18.90;87.40;;;;;;5078459;28;20189;-84
2020/12/02 10:47:49;;;;;;;24.63;5.00;;;18.90;88.90;;;;;;5082220;28;20273;-83
2020/12/02 10:50:22;;;;;;;31.17;5.23;;;18.90;89.30;;;;;;5075967;28;20225;-82
2020/12/02 10:52:52;;;;;;;34.43;6.00;;;18.90;89.30;;;;;;5074503;28;20225;-81
2020/12/02 10:55:27;;;;;;;35.53;5.37;;;18.90;89.60;;;;;;5074005;28;20681;-81
2020/12/02 10:58:18;;;;;;;28.57;5.27;;;18.80;89.60;;;;;;5073200;28;20187;-81
2020/12/02 11:00:53;;;;;;;22.87;4.70;;;18.80;89.70;;;;;;5074446;28;20203;-81
2020/12/02 11:03:25;;;;;;;32.50;6.20;;;18.80;89.70;;;;;;5074843;28;20197;-83
2020/12/02 11:06:29;;;;;;;30.03;5.67;;;18.70;89.30;;;;;;5074070;28;20282;-79
2020/12/02 11:08:59;;;;;;;29.00;4.97;;;18.60;90.50;;;;;;5074485;28;20535;-82
2020/12/02 11:11:29;;;;;;;25.53;4.73;;;18.50;91.20;;;;;;5074192;28;20236;-79
2020/12/02 11:14:22;;;;;;;36.80;5.70;;;18.50;91.30;;;;;;5073578;28;20249;-83
2020/12/02 11:17:36;;;;;;;35.47;5.97;;;18.50;91.70;;;;;;5073574;28;20171;-81
2020/12/02 11:20:17;;;;;;;39.10;6.20;;;18.40;91.90;;;;;;5057482;28;20548;-82
2020/12/02 11:22:44;;;;;;;32.97;5.27;;;18.50;92.50;;;;;;5073856;28;20171;-81
2020/12/02 11:25:31;;;;;;;29.30;6.57;;;18.50;92.40;;;;;;5064367;28;20626;-82
2020/12/02 11:27:58;;;;;;;31.60;5.63;;;18.50;92.70;;;;;;5053856;28;20196;-82
2020/12/02 11:30:30;;;;;;;27.03;4.63;;;18.40;92.30;;;;;;5053891;28;20222;-81
2020/12/02 11:33:06;;;;;;;35.90;6.10;;;18.40;92.40;;;;;;5073579;28;20707;-83
2020/12/02 11:35:53;;;;;;;31.90;5.93;;;18.40;92.20;;;;;;5073913;28;20174;-81
2020/12/02 11:38:26;;;;;;;41.43;6.27;;;18.30;92.90;;;;;;5053882;28;20172;-79
2020/12/02 11:41:29;;;;;;;36.53;5.50;;;18.30;93.00;;;;;;5053296;28;20179;-80
2020/12/02 11:44:03;;;;;;;27.77;5.53;;;18.30;93.10;;;;;;5054145;28;20182;-81
2020/12/02 11:46:34;;;;;;;31.70;5.93;;;18.30;92.80;;;;;;5053920;28;20210;-82
2020/12/02 11:49:10;;;;;;;32.40;5.20;;;18.30;92.70;;;;;;5061421;28;20198;-81
2020/12/02 11:52:01;;;;;;;35.27;5.43;;;18.30;92.40;;;;;;5073279;28;20185;-82
2020/12/02 11:54:29;;;;;;;35.13;6.33;;;18.30;92.70;;;;;;5073455;28;20543;-81
2020/12/02 11:56:57;;;;;;;25.63;4.70;;;18.30;92.40;;;;;;5072926;28;20587;-80
2020/12/02 11:59:29;;;;;;;33.07;5.63;;;18.30;92.20;;;;;;5072180;28;20236;-81
2020/12/02 12:02:03;;;;;;;35.33;6.17;;;18.20;91.40;;;;;;5072751;28;20590;-82
2020/12/02 12:04:33;;;;;;;32.27;5.27;;;18.20;91.40;;;;;;5073026;28;20172;-81
2020/12/02 12:07:41;;;;;;;29.87;4.67;;;18.20;91.50;;;;;;5072824;28;20203;-82
2020/12/02 12:10:29;;;;;;;30.20;4.70;;;18.20;91.30;;;;;;5072150;28;20657;-82
2020/12/02 12:13:07;;;;;;;34.77;5.13;;;18.20;91.70;;;;;;5073597;28;20267;-82
2020/12/02 12:15:35;;;;;;;29.63;5.47;;;18.10;92.10;;;;;;5071357;28;20159;-82
2020/12/02 12:18:13;;;;;;;26.87;4.53;;;18.10;92.20;;;;;;5056650;28;20196;-81
2020/12/02 12:20:44;;;;;;;41.90;6.40;;;18.10;92.20;;;;;;5069106;28;20184;-82
2020/12/02 12:23:38;;;;;;;33.57;5.97;;;18.10;92.10;;;;;;5072376;28;20221;-83
2020/12/02 12:26:10;;;;;;;34.63;5.03;;;18.00;92.20;;;;;;5072844;28;20222;-83
2020/12/02 12:28:37;;;;;;;32.33;5.57;;;18.10;92.40;;;;;;5061912;28;20218;-82
2020/12/02 12:31:40;;;;;;;27.83;4.83;;;18.00;92.20;;;;;;5061546;28;20185;-82
2020/12/02 12:34:26;;;;;;;29.50;5.27;;;18.00;91.90;;;;;;5038762;28;20596;-81
2020/12/02 12:37:00;;;;;;;29.80;5.60;;;18.00;92.20;;;;;;5054242;28;20180;-81
2020/12/02 12:39:43;;;;;;;27.63;5.17;;;18.00;92.40;;;;;;5062599;28;20174;-81
2020/12/02 12:42:14;;;;;;;34.30;6.23;;;18.10;92.50;;;;;;5073106;28;20185;-81
2020/12/02 12:44:42;;;;;;;33.13;6.07;;;18.10;92.00;;;;;;5053055;28;20202;-81
2020/12/02 12:47:09;;;;;;;31.97;5.50;;;18.10;92.00;;;;;;5054896;28;20242;-80
2020/12/02 12:49:36;;;;;;;32.43;4.77;;;18.10;92.00;;;;;;5072636;28;20175;-81
2020/12/02 12:52:05;;;;;;;22.07;4.90;;;18.10;92.30;;;;;;5071493;28;20240;-81
2020/12/02 12:54:36;;;;;;;31.53;5.63;;;18.20;92.20;;;;;;5071034;28;20171;-80
2020/12/02 12:57:04;;;;;;;24.87;4.57;;;18.20;92.40;;;;;;5052840;28;20215;-82
2020/12/02 12:59:33;;;;;;;30.83;5.80;;;18.20;92.30;;;;;;5052759;28;20191;-80
2020/12/02 13:02:00;;;;;;;28.40;4.67;;;18.20;92.60;;;;;;5054300;28;20179;-81
2020/12/02 13:04:28;;;;;;;32.50;5.83;;;18.30;92.10;;;;;;5072654;28;20186;-81
2020/12/02 13:07:13;;;;;;;29.20;4.83;;;18.20;92.40;;;;;;5072568;28;20214;-80
2020/12/02 13:09:58;;;;;;;31.03;5.37;;;18.30;92.40;;;;;;5070898;28;20270;-81
2020/12/02 13:13:06;;;;;;;25.33;4.60;;;18.40;92.10;;;;;;5072294;28;20187;-81
2020/12/02 13:15:43;;;;;;;31.10;5.30;;;18.30;92.00;;;;;;5054561;28;20242;-81